IFP weather

Laughlin Bullhead International Airport
Bullhead City, Arizona, United States

Public forecast

Using degrees Fahrenheit for public forecast. Weather courtesy of forecast.io.

Current aviation weather report (METAR) for Laughlin Bullhead International Airport

Retrieved 2019/12/14 19:52 UTC (1 hour ago):

KIFP 141952Z 20006KT 10SM SCT170 17/07 A2981

Aviation forecast (TAF) for Laughlin Bullhead International Airport

Retrieved 2019/12/14 18:36 UTC (2 hours ago):

TAF KIFP 141733Z 1418/1518 VRB05KT P6SM BKN250 FM142000 19012G18KT P6SM BKN250 FM150300 17011KT P6SM SCT080 BKN250 FM151700 36010KT P6SM FEW080 BKN250